createdAt,value
2017-08-01T00:02:00.024Z,998.86
2017-08-01T00:04:24.297Z,998.86
2017-08-01T00:06:48.685Z,998.96
2017-08-01T00:08:56.113Z,999.05
2017-08-01T00:11:11.967Z,999.09
2017-08-01T00:13:19.334Z,999.1
2017-08-01T00:15:43.564Z,999.05
2017-08-01T00:17:59.395Z,999.01
2017-08-01T00:20:23.620Z,999
2017-08-01T00:22:47.994Z,999.02
2017-08-01T00:25:03.794Z,999.1
2017-08-01T00:27:28.064Z,999.13
2017-08-01T00:29:52.350Z,999.24
2017-08-01T00:32:16.746Z,999.32
2017-08-01T00:34:41.030Z,999.43
2017-08-01T00:37:05.317Z,999.43
2017-08-01T00:39:29.713Z,999.47
2017-08-01T00:41:53.989Z,999.47
2017-08-01T00:44:01.380Z,999.56
2017-08-01T00:46:25.778Z,999.7
2017-08-01T00:48:41.667Z,999.76
2017-08-01T00:51:06.050Z,999.88
2017-08-01T00:53:30.319Z,999.99
2017-08-01T00:55:54.609Z,1000.03
2017-08-01T00:58:18.921Z,1000.13
2017-08-01T01:00:43.146Z,1000.28
2017-08-01T01:03:07.488Z,1000.41
2017-08-01T01:05:31.768Z,1000.46
2017-08-01T01:07:56.060Z,1000.62
2017-08-01T01:10:20.348Z,1000.74
2017-08-01T01:12:36.119Z,1001.13
2017-08-01T01:14:29.349Z,1001.42
2017-08-01T01:16:31.480Z,1001.58
2017-08-01T01:18:47.311Z,1001.52
2017-08-01T01:21:11.539Z,1001.18
2017-08-01T01:23:35.854Z,1001.26
2017-08-01T01:25:46.831Z,1001.58
2017-08-01T01:27:48.240Z,1001.63
2017-08-01T01:29:55.555Z,1001.44
2017-08-01T01:32:19.814Z,1001.79
2017-08-01T01:34:35.710Z,1001.79
2017-08-01T01:36:59.995Z,1001.48
2017-08-01T01:39:24.184Z,1001.62
2017-08-01T01:41:48.420Z,1001.78
2017-08-01T01:44:12.752Z,1001.52
2017-08-01T01:46:28.546Z,1001.49
2017-08-01T01:48:52.838Z,1001.74
2017-08-01T01:51:17.078Z,1001.77
2017-08-01T01:53:41.306Z,1001.65
2017-08-01T01:55:43.337Z,1001.56
2017-08-01T01:58:07.571Z,1001.63
2017-08-01T02:00:14.897Z,1001.72
2017-08-01T02:02:39.098Z,1001.7
2017-08-01T02:05:03.329Z,1001.67
2017-08-01T02:07:27.560Z,1001.81
2017-08-01T02:09:34.888Z,1001.89
2017-08-01T02:11:59.123Z,1001.97
2017-08-01T02:14:23.354Z,1001.97
2017-08-01T02:16:39.069Z,1002
2017-08-01T02:19:03.317Z,1002.08
2017-08-01T02:21:10.709Z,1002.02
2017-08-01T02:23:26.500Z,1001.9
2017-08-01T02:25:50.789Z,1001.82
2017-08-01T02:28:15.072Z,1001.77
2017-08-01T02:30:16.529Z,1001.78
2017-08-01T02:32:40.706Z,1001.77
2017-08-01T02:34:56.468Z,1001.75
2017-08-01T02:37:12.330Z,1001.73
2017-08-01T02:39:28.115Z,1001.78
2017-08-01T02:41:52.292Z,1001.88
2017-08-01T02:44:16.524Z,1001.83
2017-08-01T02:46:40.813Z,1001.84
2017-08-01T02:48:56.636Z,1001.9
2017-08-01T02:51:20.895Z,1001.85
2017-08-01T02:53:36.689Z,1001.82
2017-08-01T02:55:52.451Z,1001.93
2017-08-01T02:57:46.470Z,1002.03
2017-08-01T03:00:10.640Z,1002.13
2017-08-01T03:02:34.773Z,1002.2
2017-08-01T03:04:50.491Z,1002.3
2017-08-01T03:07:14.675Z,1002.45
2017-08-01T03:09:30.405Z,1002.78
2017-08-01T03:11:54.649Z,1003.06
2017-08-01T03:14:10.454Z,1003.18
2017-08-01T03:16:34.623Z,1003.23
2017-08-01T03:18:50.375Z,1003.14
2017-08-01T03:20:57.800Z,1002.96
2017-08-01T03:23:22.089Z,1002.82
2017-08-01T03:25:46.296Z,1002.74
2017-08-01T03:28:02.165Z,1002.57
2017-08-01T03:30:18.005Z,1002.48
2017-08-01T03:32:33.909Z,1002.7
2017-08-01T03:34:49.729Z,1002.85
2017-08-01T03:37:13.906Z,1002.8
2017-08-01T03:39:29.696Z,1002.72
2017-08-01T03:41:45.490Z,1002.8
2017-08-01T03:44:09.646Z,1002.72
2017-08-01T03:46:25.422Z,1002.75
2017-08-01T03:48:41.212Z,1002.7
2017-08-01T03:51:05.432Z,1002.73
2017-08-01T03:53:21.277Z,1002.68
2017-08-01T03:55:37.008Z,1002.64
2017-08-01T03:58:01.299Z,1002.57
2017-08-01T04:00:02.870Z,1002.54
2017-08-01T04:02:04.506Z,1002.53
2017-08-01T04:04:28.856Z,1002.45
2017-08-01T04:06:53.044Z,1002.41
2017-08-01T04:09:17.260Z,1002.34
2017-08-01T04:11:41.411Z,1002.3
2017-08-01T04:14:05.713Z,1002.28
2017-08-01T04:16:29.852Z,1002.25
2017-08-01T04:18:53.998Z,1002.24
2017-08-01T04:21:09.775Z,1002.24
2017-08-01T04:23:25.564Z,1002.16
2017-08-01T04:25:41.364Z,1002.08
2017-08-01T04:28:05.492Z,1002.13
2017-08-01T04:30:29.721Z,1002.14
2017-08-01T04:32:45.425Z,1002.01
2017-08-01T04:35:01.154Z,1001.95
2017-08-01T04:37:17.008Z,1001.98
2017-08-01T04:39:32.980Z,1002.05
2017-08-01T04:41:48.769Z,1001.96
2017-08-01T04:44:12.955Z,1001.98
2017-08-01T04:46:37.251Z,1001.98
2017-08-01T04:49:01.482Z,1002.02
2017-08-01T04:51:25.870Z,1002
2017-08-01T04:53:41.752Z,1002.03
2017-08-01T04:56:06.366Z,1002.08
2017-08-01T04:58:22.571Z,1002.07
2017-08-01T05:00:33.449Z,1002.08
2017-08-01T05:02:32.753Z,1002.08
2017-08-01T05:04:57.476Z,1002.11
2017-08-01T05:07:13.845Z,1002.11
2017-08-01T05:09:30.231Z,1002.15
2017-08-01T05:11:55.323Z,1002.17
2017-08-01T05:14:11.865Z,1002.18
2017-08-01T05:16:37.066Z,1002.24
2017-08-01T05:19:02.378Z,1002.19
2017-08-01T05:21:27.790Z,1002.24
2017-08-01T05:23:53.129Z,1002.18
2017-08-01T05:26:04.344Z,1002.05
2017-08-01T05:28:21.079Z,1002.09
2017-08-01T05:30:46.310Z,1002.09
2017-08-01T05:33:11.535Z,1001.98
2017-08-01T05:35:36.693Z,1002
2017-08-01T05:37:53.159Z,1001.94
2017-08-01T05:40:18.160Z,1001.92
2017-08-01T05:42:43.061Z,1002.02
2017-08-01T05:44:59.324Z,1002.01
2017-08-01T05:47:15.633Z,1002.14
2017-08-01T05:49:40.569Z,1001.97
2017-08-01T05:51:56.996Z,1002.03
2017-08-01T05:54:08.275Z,1002.14
2017-08-01T05:56:33.143Z,1002.07
2017-08-01T05:58:58.261Z,1001.93
2017-08-01T06:01:14.644Z,1001.91
2017-08-01T06:03:39.541Z,1001.85
2017-08-01T06:05:55.841Z,1002.14
2017-08-01T06:08:12.253Z,1002.03
2017-08-01T06:10:37.178Z,1002.11
2017-08-01T06:13:02.135Z,1002.01
2017-08-01T06:15:18.761Z,1002.12
2017-08-01T06:17:35.532Z,1002.22
2017-08-01T06:20:00.984Z,1002.13
2017-08-01T06:22:18.037Z,1002.21
2017-08-01T06:24:43.763Z,1002.18
2017-08-01T06:27:09.739Z,1002.16
2017-08-01T06:29:27.388Z,1002.21
2017-08-01T06:31:53.858Z,1002.28
2017-08-01T06:34:20.439Z,1002.28
2017-08-01T06:36:47.795Z,1002.29
2017-08-01T06:39:14.354Z,1002.29
2017-08-01T06:41:40.933Z,1002.38
2017-08-01T06:44:07.671Z,1002.39
2017-08-01T06:46:34.518Z,1002.4
2017-08-01T06:49:01.337Z,1002.53
2017-08-01T06:51:28.242Z,1002.54
2017-08-01T06:53:55.143Z,1002.56
2017-08-01T06:56:24.072Z,1002.2
2017-08-01T06:58:42.362Z,1002.59
2017-08-01T07:01:09.401Z,1002.6
2017-08-01T07:03:38.400Z,1002.65
2017-08-01T07:05:49.150Z,1002.65
2017-08-01T07:08:16.167Z,1002.7
2017-08-01T07:10:34.552Z,1002.69
2017-08-01T07:13:01.411Z,1002.71
2017-08-01T07:15:19.586Z,1002.76
2017-08-01T07:17:46.347Z,1002.87
2017-08-01T07:20:12.968Z,1002.93
2017-08-01T07:22:39.505Z,1002.92
2017-08-01T07:24:57.302Z,1002.97
2017-08-01T07:27:23.624Z,1002.82
2017-08-01T07:29:49.933Z,1002.85
2017-08-01T07:32:15.950Z,1003.05
2017-08-01T07:34:41.845Z,1003.02
2017-08-01T07:36:59.227Z,1003.01
2017-08-01T07:39:11.085Z,1003.05
2017-08-01T07:41:37.395Z,1002.93
2017-08-01T07:43:40.327Z,1003.01
2017-08-01T07:46:06.148Z,1003.03
2017-08-01T07:48:31.958Z,1003.14
2017-08-01T07:50:57.714Z,1003.22
2017-08-01T07:53:23.545Z,1003.25
2017-08-01T07:55:49.524Z,1003.25
2017-08-01T07:58:15.530Z,1003.3
2017-08-01T08:00:41.586Z,1003.18
2017-08-01T08:02:59.046Z,1002.86
2017-08-01T08:05:25.033Z,1003.09
2017-08-01T08:07:42.369Z,1003.05
2017-08-01T08:10:08.368Z,1003.02
2017-08-01T08:12:34.216Z,1003
2017-08-01T08:15:00.105Z,1002.94
2017-08-01T08:17:26.049Z,1003.1
2017-08-01T08:19:52.090Z,1002.99
2017-08-01T08:22:18.139Z,1002.98
2017-08-01T08:24:44.257Z,1003
2017-08-01T08:27:10.421Z,1002.93
2017-08-01T08:29:36.449Z,1003.08
2017-08-01T08:32:02.516Z,1002.97
2017-08-01T08:34:28.450Z,1003.23
2017-08-01T08:36:54.446Z,1003.26
2017-08-01T08:39:20.461Z,1003.07
2017-08-01T08:41:46.592Z,1002.96
2017-08-01T08:44:12.445Z,1002.91
2017-08-01T08:48:17.070Z,1002.82
2017-08-01T08:50:34.223Z,1002.8
2017-08-01T08:52:59.898Z,1002.87
2017-08-01T08:55:26.556Z,1002.77
2017-08-01T08:57:52.424Z,1002.73
2017-08-01T09:00:18.181Z,1002.73
2017-08-01T09:02:44.071Z,1002.78
2017-08-01T09:05:09.951Z,1002.76
2017-08-01T09:07:35.868Z,1002.65
2017-08-01T09:10:01.837Z,1002.71
2017-08-01T09:12:27.852Z,1002.46
2017-08-01T09:14:53.750Z,1002.43
2017-08-01T09:17:10.961Z,1002.68
2017-08-01T09:19:36.881Z,1002.7
2017-08-01T09:22:02.807Z,1002.44
2017-08-01T09:24:28.537Z,1002.39
2017-08-01T09:26:54.383Z,1002.34
2017-08-01T09:29:19.910Z,1002.27
2017-08-01T09:31:45.464Z,1002.32
2017-08-01T09:34:11.063Z,1002.52
2017-08-01T09:36:36.687Z,1002.7
2017-08-01T09:39:02.396Z,1002.44
2017-08-01T09:41:28.209Z,1002.55
2017-08-01T09:43:53.914Z,1002.59
2017-08-01T09:46:19.719Z,1002.5
2017-08-01T09:48:45.643Z,1002.45
2017-08-01T09:51:11.459Z,1002.44
2017-08-01T09:53:37.353Z,1002.43
2017-08-01T09:56:03.205Z,1002.44
2017-08-01T09:58:29.055Z,1002.53
2017-08-01T10:00:54.971Z,1002.44
2017-08-01T10:03:21.003Z,1002.55
2017-08-01T10:05:46.894Z,1002.55
2017-08-01T10:08:12.888Z,1002.33
2017-08-01T10:10:38.804Z,1002.3
2017-08-01T10:13:04.915Z,1002.54
2017-08-01T10:15:30.743Z,1002.44
2017-08-01T10:17:56.669Z,1002.35
2017-08-01T10:20:09.418Z,1002.27
2017-08-01T10:22:35.333Z,1002.21
2017-08-01T10:25:01.182Z,1002.18
2017-08-01T10:27:26.875Z,1002.29
2017-08-01T10:29:52.551Z,1002.13
2017-08-01T10:32:19.832Z,1002.24
2017-08-01T10:34:45.947Z,1002.19
2017-08-01T10:37:12.094Z,1002.12
2017-08-01T10:39:38.922Z,1002.23
2017-08-01T10:42:04.663Z,1002.29
2017-08-01T10:44:30.417Z,1002.24
2017-08-01T10:46:56.255Z,1002.08
2017-08-01T10:49:13.420Z,1002.05
2017-08-01T10:51:38.961Z,1002.19
2017-08-01T10:54:04.527Z,1002.11
2017-08-01T10:56:30.156Z,1002.26
2017-08-01T10:58:56.826Z,1002.1
2017-08-01T11:01:22.407Z,1002.16
2017-08-01T11:03:48.024Z,1001.92
2017-08-01T11:06:13.599Z,1001.85
2017-08-01T11:08:39.349Z,1001.8
2017-08-01T11:11:04.762Z,1001.87
2017-08-01T11:13:30.465Z,1001.79
2017-08-01T11:15:55.920Z,1001.75
2017-08-01T11:18:24.187Z,1001.73
2017-08-01T11:20:50.567Z,1001.67
2017-08-01T11:23:16.076Z,1001.69
2017-08-01T11:25:41.623Z,1001.66
2017-08-01T11:28:07.113Z,1001.69
2017-08-01T11:30:32.752Z,1001.63
2017-08-01T11:32:59.734Z,1001.59
2017-08-01T11:35:26.401Z,1001.64
2017-08-01T11:37:51.831Z,1001.66
2017-08-01T11:40:17.529Z,1001.7
2017-08-01T11:42:43.019Z,1001.66
2017-08-01T11:45:08.727Z,1001.59
2017-08-01T11:47:34.794Z,1001.58
2017-08-01T11:50:02.202Z,1001.62
2017-08-01T11:52:30.322Z,1001.61
2017-08-01T11:54:58.023Z,1001.62
2017-08-01T11:57:25.976Z,1001.69
2017-08-01T11:59:57.665Z,1001.61
2017-08-01T12:02:26.364Z,1001.58
2017-08-01T12:04:52.290Z,1001.54
2017-08-01T12:07:17.781Z,1001.58
2017-08-01T12:09:43.214Z,1001.61
2017-08-01T12:12:08.692Z,1001.55
2017-08-01T12:14:34.198Z,1001.56
2017-08-01T12:16:59.653Z,1001.56
2017-08-01T12:19:25.570Z,1001.52
2017-08-01T12:21:54.640Z,1001.54
2017-08-01T12:24:20.010Z,1001.57
2017-08-01T12:26:45.634Z,1001.52
2017-08-01T12:29:11.028Z,1001.49
2017-08-01T12:31:36.550Z,1001.48
2017-08-01T12:34:01.969Z,1001.5
2017-08-01T12:36:19.190Z,1001.43
2017-08-01T12:38:44.509Z,1001.63
2017-08-01T12:41:10.009Z,1001.69
2017-08-01T12:43:35.499Z,1001.71
2017-08-01T12:46:00.818Z,1001.78
2017-08-01T12:48:17.795Z,1001.74
2017-08-01T12:50:43.245Z,1001.75
2017-08-01T12:53:08.820Z,1001.89
2017-08-01T12:55:34.349Z,1001.91
2017-08-01T12:57:59.885Z,1002
2017-08-01T13:00:25.469Z,1002.01
2017-08-01T13:02:50.854Z,1002
2017-08-01T13:05:21.646Z,1002.08
2017-08-01T13:14:48.555Z,1002.09
2017-08-01T13:17:14.940Z,1002.12
2017-08-01T13:19:43.770Z,1002.17
2017-08-01T13:22:05.189Z,1002.2
2017-08-01T13:24:36.192Z,1002.35
2017-08-01T13:42:29.726Z,1002.95
2017-08-01T13:47:35.113Z,1003.47
2017-08-01T13:49:46.943Z,1003.55
2017-08-01T13:52:03.802Z,1003.61
2017-08-01T13:54:29.311Z,1003.77
2017-08-01T13:56:54.730Z,1004.15
2017-08-01T13:59:19.907Z,1004.02
2017-08-01T14:01:45.022Z,1003.81
2017-08-01T14:04:10.201Z,1003.67
2017-08-01T14:06:35.286Z,1003.63
2017-08-01T14:09:00.514Z,1003.5
2017-08-01T14:11:25.654Z,1003.31
2017-08-01T14:13:36.372Z,1003.15
2017-08-01T14:16:02.249Z,1002.99
2017-08-01T14:18:27.876Z,1002.89
2017-08-01T14:20:53.023Z,1002.93
2017-08-01T14:23:18.160Z,1002.84
2017-08-01T14:25:43.243Z,1002.89
2017-08-01T14:28:08.414Z,1002.8
2017-08-01T14:30:33.485Z,1002.74
2017-08-01T14:32:58.710Z,1002.74
2017-08-01T14:35:23.695Z,1002.75
2017-08-01T14:37:48.908Z,1002.93
2017-08-01T14:40:14.164Z,1002.87
2017-08-01T14:44:16.972Z,1002.73
2017-08-01T14:46:42.148Z,1002.72
2017-08-01T14:49:07.116Z,1002.67
2017-08-01T14:51:32.232Z,1002.71
2017-08-01T14:53:57.302Z,1002.67
2017-08-01T14:56:22.406Z,1002.77
2017-08-01T14:58:47.388Z,1002.97
2017-08-01T15:01:12.441Z,1003
2017-08-01T15:03:37.513Z,1002.86
2017-08-01T15:06:02.553Z,1002.88
2017-08-01T15:08:27.615Z,1002.9
2017-08-01T15:10:52.574Z,1003.02
2017-08-01T15:13:17.613Z,1003.15
2017-08-01T15:15:42.679Z,1003.01
2017-08-01T15:18:07.480Z,1002.93
2017-08-01T15:20:32.519Z,1002.95
2017-08-01T15:22:57.591Z,1002.85
2017-08-01T15:25:22.579Z,1002.73
2017-08-01T15:27:47.427Z,1002.66
2017-08-01T15:30:13.038Z,1002.54
2017-08-01T15:32:39.219Z,1002.79
2017-08-01T15:35:07.799Z,1002.75
2017-08-01T15:37:35.242Z,1002.49
2017-08-01T15:40:03.240Z,1002.31
2017-08-01T15:42:28.915Z,1002.2
2017-08-01T15:44:56.384Z,1002.19
2017-08-01T15:47:22.092Z,1002.16
2017-08-01T15:49:46.824Z,1001.94
2017-08-01T15:52:12.544Z,1001.91
2017-08-01T15:54:37.261Z,1002.07
2017-08-01T15:57:02.087Z,1002.33
2017-08-01T15:59:26.811Z,1002.41
2017-08-01T16:01:51.630Z,1002.54
2017-08-01T16:04:16.376Z,1002.85
2017-08-01T16:08:17.592Z,1003.35
2017-08-01T16:10:42.333Z,1003.56
2017-08-01T16:13:07.080Z,1003.66
2017-08-01T16:15:31.782Z,1003.63
2017-08-01T16:17:56.400Z,1003.44
2017-08-01T16:20:20.996Z,1003.1
2017-08-01T16:22:45.653Z,1002.64
2017-08-01T16:25:10.266Z,1002.37
2017-08-01T16:27:34.933Z,1002.26
2017-08-01T16:29:59.578Z,1002.05
2017-08-01T16:32:24.249Z,1001.87
2017-08-01T16:34:48.881Z,1001.72
2017-08-01T16:37:13.437Z,1001.72
2017-08-01T16:39:38.108Z,1001.62
2017-08-01T16:42:02.621Z,1001.55
2017-08-01T16:44:18.793Z,1001.54
2017-08-01T16:46:43.414Z,1001.68
2017-08-01T16:49:07.994Z,1001.84
2017-08-01T16:51:32.568Z,1001.84
2017-08-01T16:53:57.191Z,1001.78
2017-08-01T16:55:59.624Z,1001.71
2017-08-01T16:58:24.221Z,1001.74
2017-08-01T17:00:48.733Z,1001.83
2017-08-01T17:03:04.829Z,1001.98
2017-08-01T17:05:20.884Z,1002.03
2017-08-01T17:07:45.449Z,1002.12
2017-08-01T17:10:09.995Z,1002.14
2017-08-01T17:12:34.521Z,1002.13
2017-08-01T17:14:59.049Z,1002.25
2017-08-01T17:17:23.579Z,1002.37
2017-08-01T17:19:48.248Z,1002.55
2017-08-01T17:22:12.723Z,1002.7
2017-08-01T17:24:37.136Z,1002.64
2017-08-01T17:27:01.728Z,1002.44
2017-08-01T17:29:26.215Z,1002.31
2017-08-01T17:31:50.770Z,1002.21
2017-08-01T17:34:15.277Z,1002.21
2017-08-01T17:36:39.850Z,1002.25
2017-08-01T17:38:55.958Z,1002.08
2017-08-01T17:41:20.431Z,1002.7
2017-08-01T17:43:45.337Z,1002.69
2017-08-01T17:46:10.324Z,1002.72
2017-08-01T17:48:35.010Z,1002.77
2017-08-01T17:50:59.504Z,1002.62
2017-08-01T17:53:24.000Z,1002.45
2017-08-01T17:55:48.597Z,1002.45
2017-08-01T17:58:13.094Z,1002.47
2017-08-01T18:00:37.629Z,1002.58
2017-08-01T18:03:02.209Z,1002.44
2017-08-01T18:05:26.794Z,1002.55
2017-08-01T18:07:51.588Z,1002.81
2017-08-01T18:10:15.941Z,1002.97
2017-08-01T18:12:40.577Z,1002.91
2017-08-01T18:15:05.127Z,1002.8
2017-08-01T18:17:29.709Z,1002.68
2017-08-01T18:19:54.334Z,1002.59
2017-08-01T18:22:10.667Z,1002.3
2017-08-01T18:24:35.392Z,1002.77
2017-08-01T18:26:59.958Z,1002.98
2017-08-01T18:29:24.980Z,1003.12
2017-08-01T18:31:49.758Z,1003.18
2017-08-01T18:34:14.325Z,1003.31
2017-08-01T18:36:39.206Z,1003.5
2017-08-01T18:38:41.388Z,1003.6
2017-08-01T18:40:52.932Z,1003.75
2017-08-01T18:43:17.754Z,1003.91
2017-08-01T18:45:43.245Z,1004.05
2017-08-01T18:48:07.689Z,1004.24
2017-08-01T18:50:32.546Z,1004.43
2017-08-01T18:52:58.040Z,1004.4
2017-08-01T18:55:23.237Z,1004.45
2017-08-01T18:57:48.996Z,1004.57
2017-08-01T19:00:13.948Z,1004.92
2017-08-01T19:05:09.738Z,1005.2
2017-08-01T19:07:34.963Z,1004.76
2017-08-01T19:10:00.774Z,1004.76
2017-08-01T19:12:27.073Z,1004.77
2017-08-01T19:14:52.450Z,1004.6
2017-08-01T19:17:18.312Z,1004.05
2017-08-01T19:19:43.946Z,1003.19
2017-08-01T19:22:09.448Z,1003.17
2017-08-01T19:24:34.664Z,1003.36
2017-08-01T19:27:01.897Z,1003.12
2017-08-01T19:29:27.013Z,1002.83
2017-08-01T19:33:28.508Z,1002.67
2017-08-01T19:35:54.516Z,1002.8
2017-08-01T19:38:19.257Z,1003.42
2017-08-01T19:40:44.212Z,1003.69
2017-08-01T19:43:08.934Z,1003.91
2017-08-01T19:45:34.169Z,1004.07
2017-08-01T19:47:58.834Z,1004.37
2017-08-01T19:50:23.930Z,1004.7
2017-08-01T19:52:49.258Z,1004.99
2017-08-01T19:55:13.758Z,1005.19
2017-08-01T19:57:38.793Z,1005.13
2017-08-01T20:00:03.779Z,1005.13
2017-08-01T20:02:28.409Z,1005.26
2017-08-01T20:04:53.235Z,1005.24
2017-08-01T20:07:18.060Z,1005.11
2017-08-01T20:09:43.821Z,1004.93
2017-08-01T20:12:00.032Z,1004.59
2017-08-01T20:14:24.734Z,1004.29
2017-08-01T20:16:49.506Z,1004.27
2017-08-01T20:19:14.102Z,1004.55
2017-08-01T20:21:38.771Z,1004.48
2017-08-01T20:25:17.952Z,1004.2
2017-08-01T20:27:42.460Z,1004.34
2017-08-01T20:30:06.858Z,1004.43
2017-08-01T20:32:31.237Z,1004.3
2017-08-01T20:34:55.630Z,1004.38
2017-08-01T20:37:19.947Z,1004.29
2017-08-01T20:39:44.216Z,1004.24
2017-08-01T20:42:08.551Z,1003.88
2017-08-01T20:44:32.907Z,1004.05
2017-08-01T20:46:57.231Z,1004.39
2017-08-01T20:49:21.612Z,1004.36
2017-08-01T20:53:31.060Z,1004.21
2017-08-01T20:55:46.992Z,1004.12
2017-08-01T20:58:11.370Z,1004.23
2017-08-01T21:00:35.756Z,1004.42
2017-08-01T21:03:00.115Z,1004.36
2017-08-01T21:05:24.501Z,1004.27
2017-08-01T21:07:48.881Z,1004.23
2017-08-01T21:10:13.235Z,1004.17
2017-08-01T21:12:37.606Z,1004.24
2017-08-01T21:15:01.983Z,1004.23
2017-08-01T21:17:26.360Z,1004.1
2017-08-01T21:19:50.694Z,1004.22
2017-08-01T21:22:06.603Z,1004.33
2017-08-01T21:24:09.005Z,1004.51
2017-08-01T21:26:18.832Z,1004.71
2017-08-01T21:28:44.174Z,1004.85
2017-08-01T21:31:08.889Z,1005.01
2017-08-01T21:33:33.472Z,1005.09
2017-08-01T21:35:57.852Z,1005.13
2017-08-01T21:38:22.343Z,1005.16
2017-08-01T21:40:46.579Z,1005.21
2017-08-01T21:43:11.042Z,1005.18
2017-08-01T21:45:35.386Z,1005.25
2017-08-01T21:47:59.657Z,1005.29
2017-08-01T21:50:23.982Z,1005.28
2017-08-01T21:52:49.361Z,1005.37
2017-08-01T21:55:13.679Z,1005.52
2017-08-01T21:57:38.046Z,1005.35
2017-08-01T22:00:02.365Z,1005.27
2017-08-01T22:02:13.343Z,1005.28
2017-08-01T22:04:17.167Z,1005.18
2017-08-01T22:06:41.575Z,1005.08
2017-08-01T22:09:05.877Z,1005.07
2017-08-01T22:11:30.146Z,1005.01
2017-08-01T22:13:54.611Z,1005.06
2017-08-01T22:16:18.966Z,1005.02
2017-08-01T22:18:43.193Z,1005.02
2017-08-01T22:21:07.668Z,1004.97
2017-08-01T22:23:31.845Z,1005.06
2017-08-01T22:25:56.167Z,1005.14
2017-08-01T22:28:07.394Z,1005.12
2017-08-01T22:30:31.868Z,1005.11
2017-08-01T22:32:56.766Z,1005.13
2017-08-01T22:35:20.532Z,1005.19
2017-08-01T22:37:45.030Z,1005.13
2017-08-01T22:40:09.325Z,1005.18
2017-08-01T22:42:33.692Z,1005.21
2017-08-01T22:44:57.993Z,1005.13
2017-08-01T22:47:22.384Z,1005.12
2017-08-01T22:49:46.765Z,1005.05
2017-08-01T22:52:11.161Z,1005.11
2017-08-01T22:54:35.528Z,1005.05
2017-08-01T22:56:59.914Z,1005.02
2017-08-01T22:59:24.279Z,1004.89
2017-08-01T23:01:34.773Z,1004.82
2017-08-01T23:03:59.120Z,1004.71
2017-08-01T23:06:23.476Z,1004.6
2017-08-01T23:08:48.894Z,1004.62
2017-08-01T23:11:13.259Z,1004.69
2017-08-01T23:13:29.195Z,1004.82
2017-08-01T23:15:53.497Z,1004.79
2017-08-01T23:18:17.856Z,1004.89
2017-08-01T23:20:42.204Z,1004.94
2017-08-01T23:23:06.532Z,1005
2017-08-01T23:25:22.391Z,1005.02
2017-08-01T23:27:46.711Z,1004.94
2017-08-01T23:30:11.046Z,1004.98
2017-08-01T23:32:35.343Z,1005.01
2017-08-01T23:34:59.619Z,1005.05
2017-08-01T23:37:10.151Z,1005.1
2017-08-01T23:39:34.498Z,1005.18
2017-08-01T23:41:45.537Z,1005.1
2017-08-01T23:44:09.846Z,1005.11
2017-08-01T23:46:34.176Z,1005.08
2017-08-01T23:48:58.455Z,1004.99
2017-08-01T23:51:09.221Z,1004.94
2017-08-01T23:53:33.553Z,1004.91
2017-08-01T23:55:57.861Z,1004.98
2017-08-01T23:58:13.692Z,1004.99
